createdAt,value
2018-12-09T00:02:38.024Z,14.63
2018-12-09T00:07:35.141Z,30.92
2018-12-09T00:12:32.092Z,18.60
2018-12-09T00:17:34.045Z,14.87
2018-12-09T00:22:33.403Z,20.20
2018-12-09T00:27:30.579Z,19.50
2018-12-09T00:32:28.604Z,23.52
2018-12-09T00:37:26.504Z,22.50
2018-12-09T00:42:26.610Z,30.97
2018-12-09T00:47:28.423Z,29.65
2018-12-09T00:52:26.346Z,22.60
2018-12-09T00:57:24.206Z,33.18
2018-12-09T01:02:23.784Z,29.02
2018-12-09T01:07:21.686Z,22.95
2018-12-09T01:09:52.256Z,31.27
2018-12-09T01:14:53.692Z,20.92
2018-12-09T01:19:50.943Z,32.45
2018-12-09T01:24:48.773Z,36.23
2018-12-09T01:29:46.715Z,19.85
2018-12-09T01:34:44.465Z,28.52
2018-12-09T01:39:46.499Z,24.87
2018-12-09T01:42:17.426Z,28.10
2018-12-09T01:47:19.067Z,20.08
2018-12-09T01:52:21.616Z,15.60
2018-12-09T01:57:19.894Z,18.82
2018-12-09T02:02:21.295Z,16.37
2018-12-09T02:07:19.256Z,21.68
2018-12-09T02:12:16.801Z,21.15
2018-12-09T02:17:14.616Z,20.30
2018-12-09T02:22:12.495Z,17.60
2018-12-09T02:27:10.294Z,20.62
2018-12-09T02:32:08.177Z,23.07
2018-12-09T02:37:05.535Z,16.82
2018-12-09T02:42:02.782Z,22.40
2018-12-09T02:47:00.643Z,18.57
2018-12-09T02:51:58.624Z,24.75
2018-12-09T02:56:58.576Z,18.95
2018-12-09T03:01:55.543Z,19.12
2018-12-09T03:04:26.103Z,20.15
2018-12-09T03:09:29.283Z,19.80
2018-12-09T03:14:27.005Z,19.60
2018-12-09T03:19:24.843Z,15.93
2018-12-09T03:24:22.743Z,19.12
2018-12-09T03:29:20.663Z,13.83
2018-12-09T03:34:23.736Z,11.93
2018-12-09T03:36:55.426Z,12.58
2018-12-09T03:41:59.200Z,14.50
2018-12-09T03:46:55.530Z,12.68
2018-12-09T03:51:53.455Z,10.93
2018-12-09T03:56:50.843Z,9.60
2018-12-09T04:01:48.644Z,11.53
2018-12-09T04:06:45.872Z,12.50
2018-12-09T04:09:17.405Z,12.73
2018-12-09T04:14:19.823Z,12.33
2018-12-09T04:19:18.366Z,12.03
2018-12-09T04:24:16.164Z,10.90
2018-12-09T04:29:14.084Z,13.70
2018-12-09T04:34:14.270Z,13.30
2018-12-09T04:39:20.117Z,13.08
2018-12-09T04:44:22.729Z,12.33
2018-12-09T04:49:20.663Z,8.98
2018-12-09T04:54:18.511Z,10.28
2018-12-09T04:59:19.324Z,9.75
2018-12-09T05:04:22.504Z,9.98
2018-12-09T05:09:23.864Z,7.47
2018-12-09T05:14:21.629Z,9.95
2018-12-09T05:19:19.504Z,11.48
2018-12-09T05:24:16.584Z,12.68
2018-12-09T05:29:15.007Z,15.10
2018-12-09T05:34:12.965Z,13.90
2018-12-09T05:39:10.785Z,16.20
2018-12-09T05:44:08.904Z,16.23
2018-12-09T05:49:06.785Z,16.90
2018-12-09T05:54:04.596Z,15.58
2018-12-09T05:59:02.357Z,16.40
2018-12-09T06:03:59.535Z,17.50
2018-12-09T06:09:02.856Z,18.87
2018-12-09T06:14:00.423Z,22.07
2018-12-09T06:18:58.107Z,20.20
2018-12-09T06:23:55.427Z,16.95
2018-12-09T06:28:53.217Z,17.65
2018-12-09T06:31:25.940Z,18.15
2018-12-09T06:36:27.455Z,17.55
2018-12-09T06:41:26.215Z,23.55
2018-12-09T06:46:24.118Z,35.35
2018-12-09T06:51:21.671Z,25.40
2018-12-09T06:53:52.569Z,29.30
2018-12-09T06:56:23.195Z,27.70
2018-12-09T07:01:24.668Z,26.15
2018-12-09T07:06:22.736Z,26.35
2018-12-09T07:11:21.540Z,28.73
2018-12-09T07:16:19.635Z,28.65
2018-12-09T07:21:21.235Z,37.13
2018-12-09T07:26:24.978Z,29.92
2018-12-09T07:31:26.314Z,37.42
2018-12-09T07:36:30.549Z,35.65
2018-12-09T07:41:33.947Z,28.12
2018-12-09T07:46:32.985Z,31.48
2018-12-09T07:51:30.769Z,36.83
2018-12-09T07:56:28.709Z,38.00
2018-12-09T07:59:00.895Z,34.50
2018-12-09T08:04:02.387Z,30.95
2018-12-09T08:09:01.137Z,37.50
2018-12-09T08:13:58.174Z,34.33
2018-12-09T08:18:56.876Z,34.23
2018-12-09T08:23:59.568Z,31.05
2018-12-09T08:28:56.097Z,37.08
2018-12-09T08:33:55.086Z,41.98
2018-12-09T08:38:59.284Z,35.50
2018-12-09T08:44:01.415Z,42.05
2018-12-09T08:48:59.555Z,38.28
2018-12-09T08:53:58.616Z,33.92
2018-12-09T08:58:56.239Z,39.38
2018-12-09T09:01:27.095Z,38.33
2018-12-09T09:06:29.348Z,41.80
2018-12-09T09:11:27.904Z,53.90
2018-12-09T09:16:25.055Z,63.28
2018-12-09T09:21:22.871Z,43.52
2018-12-09T09:26:19.824Z,43.65
2018-12-09T09:31:21.531Z,47.67
2018-12-09T09:36:22.755Z,45.17
2018-12-09T09:41:24.487Z,40.65
2018-12-09T09:46:23.543Z,40.58
2018-12-09T09:51:21.146Z,39.95
2018-12-09T09:56:18.963Z,36.73
2018-12-09T10:01:17.498Z,44.50
2018-12-09T10:06:14.775Z,37.10
2018-12-09T10:11:20.275Z,46.98
2018-12-09T10:16:17.553Z,44.15
2018-12-09T10:21:15.554Z,40.30
2018-12-09T10:26:19.661Z,38.60
2018-12-09T10:31:17.225Z,32.20
2018-12-09T10:36:14.161Z,33.33
2018-12-09T10:41:15.734Z,34.55
2018-12-09T10:46:13.583Z,38.58
2018-12-09T10:51:12.455Z,35.90
